createdAt,value
2022-12-01T00:02:55.038Z,100968.10
2022-12-01T00:06:02.135Z,100968.46
2022-12-01T00:09:22.546Z,100966.73
2022-12-01T00:12:24.032Z,100964.12
2022-12-01T00:15:28.035Z,100960.13
2022-12-01T00:18:29.541Z,100957.35
2022-12-01T00:21:31.183Z,100954.06
2022-12-01T00:24:32.834Z,100955.98
2022-12-01T00:27:34.255Z,100952.50
2022-12-01T00:30:35.672Z,100945.04
2022-12-01T00:33:37.848Z,100944.34
2022-12-01T00:36:39.330Z,100944.88
2022-12-01T00:39:40.791Z,100943.84
2022-12-01T00:42:42.220Z,100946.10
2022-12-01T00:45:43.765Z,100945.75
2022-12-01T00:48:45.244Z,100948.36
2022-12-01T00:51:46.685Z,100948.17
2022-12-01T00:54:48.110Z,100947.14
2022-12-01T00:57:49.517Z,100946.62
2022-12-01T01:00:58.854Z,100944.02
2022-12-01T01:04:00.266Z,100948.52
2022-12-01T01:07:02.107Z,100945.40
2022-12-01T01:10:04.330Z,100945.41
2022-12-01T01:13:06.027Z,100945.58
2022-12-01T01:16:14.205Z,100946.44
2022-12-01T01:19:16.972Z,100949.38
2022-12-01T01:22:19.056Z,100947.82
2022-12-01T01:25:20.546Z,100948.86
2022-12-01T01:28:21.956Z,100951.46
2022-12-01T01:31:25.528Z,100949.39
2022-12-01T01:34:27.052Z,100952.17
2022-12-01T01:37:28.494Z,100952.16
2022-12-01T01:40:29.884Z,100949.73
2022-12-01T01:43:43.527Z,100949.20
2022-12-01T01:46:45.019Z,100947.46
2022-12-01T01:49:47.182Z,100948.86
2022-12-01T01:52:55.146Z,100946.63
2022-12-01T01:55:57.434Z,100950.77
2022-12-01T01:58:59.433Z,100949.73
2022-12-01T02:02:09.949Z,100947.64
2022-12-01T02:05:18.448Z,100948.67
2022-12-01T02:08:19.986Z,100944.86
2022-12-01T02:11:52.399Z,100948.52
2022-12-01T02:15:15.669Z,100932.21
2022-12-01T02:18:22.209Z,100949.92
2022-12-01T02:21:56.235Z,100952.34
2022-12-01T02:25:07.565Z,100950.79
2022-12-01T02:28:31.156Z,100957.90
2022-12-01T02:31:40.918Z,100951.48
2022-12-01T02:35:01.011Z,100950.44
2022-12-01T02:38:17.516Z,100948.36
2022-12-01T02:41:28.963Z,100949.75
2022-12-01T02:44:38.407Z,100946.43
2022-12-01T02:47:41.485Z,100940.19
2022-12-01T02:50:45.904Z,100938.29
2022-12-01T02:53:48.029Z,100933.77
2022-12-01T02:56:52.978Z,100935.15
2022-12-01T02:59:54.924Z,100928.91
2022-12-01T03:03:16.746Z,100934.63
2022-12-01T03:06:37.088Z,100935.14
2022-12-01T03:09:53.415Z,100933.26
2022-12-01T03:13:08.046Z,100932.56
2022-12-01T03:16:12.651Z,100937.59
2022-12-01T03:19:18.199Z,100933.27
2022-12-01T03:22:26.681Z,100932.05
2022-12-01T03:25:30.987Z,100937.77
2022-12-01T03:28:42.914Z,100937.77
2022-12-01T03:31:50.381Z,100937.78
2022-12-01T03:34:59.891Z,100941.25
2022-12-01T03:38:16.184Z,100938.30
2022-12-01T03:41:25.015Z,100940.55
2022-12-01T03:44:33.199Z,100935.52
2022-12-01T03:47:37.075Z,100936.21
2022-12-01T03:50:49.236Z,100937.27
2022-12-01T03:54:05.411Z,100940.21
2022-12-01T03:57:12.930Z,100937.42
2022-12-01T04:00:17.170Z,100932.39
2022-12-01T04:03:22.441Z,100934.63
2022-12-01T04:06:23.953Z,100939.48
2022-12-01T04:09:25.551Z,100942.60
2022-12-01T04:12:29.937Z,100941.04
2022-12-01T04:15:31.381Z,100939.48
2022-12-01T04:18:32.713Z,100938.61
2022-12-01T04:21:34.136Z,100939.31
2022-12-01T04:24:35.481Z,100939.30
2022-12-01T04:27:37.868Z,100937.74
2022-12-01T04:30:39.351Z,100937.39
2022-12-01T04:33:40.826Z,100938.42
2022-12-01T04:36:42.326Z,100933.23
2022-12-01T04:39:44.148Z,100933.77
2022-12-01T04:42:45.562Z,100933.43
2022-12-01T04:45:48.116Z,100929.27
2022-12-01T04:48:51.652Z,100939.14
2022-12-01T04:51:53.110Z,100938.80
2022-12-01T04:54:54.585Z,100945.20
2022-12-01T04:57:55.984Z,100948.70
2022-12-01T05:01:08.762Z,100948.86
2022-12-01T05:04:12.782Z,100950.59
2022-12-01T05:07:14.200Z,100953.89
2022-12-01T05:10:18.520Z,100951.11
2022-12-01T05:13:19.905Z,100956.48
2022-12-01T05:16:24.761Z,100955.11
2022-12-01T05:19:45.095Z,100957.52
2022-12-01T05:23:04.844Z,100959.77
2022-12-01T05:26:08.716Z,100959.45
2022-12-01T05:29:11.275Z,100950.08
2022-12-01T05:32:12.747Z,100957.35
2022-12-01T05:35:14.383Z,100959.10
2022-12-01T05:38:17.940Z,100958.91
2022-12-01T05:41:20.727Z,100952.84
2022-12-01T05:44:22.237Z,100958.04
2022-12-01T05:47:23.663Z,100962.55
2022-12-01T05:50:27.178Z,100960.64
2022-12-01T05:53:29.609Z,100963.25
2022-12-01T05:56:31.041Z,100963.41
2022-12-01T05:59:32.666Z,100963.41
2022-12-01T06:02:34.133Z,100962.38
2022-12-01T06:05:35.681Z,100955.77
2022-12-01T06:08:37.085Z,100963.58
2022-12-01T06:11:38.542Z,100968.95
2022-12-01T06:14:41.972Z,100968.09
2022-12-01T06:17:47.352Z,100964.61
2022-12-01T06:20:48.899Z,100967.59
2022-12-01T06:23:50.293Z,100974.52
2022-12-01T06:26:51.871Z,100973.13
2022-12-01T06:29:53.675Z,100979.55
2022-12-01T06:32:55.333Z,100981.30
2022-12-01T06:36:07.225Z,100980.25
2022-12-01T06:39:12.289Z,100980.09
2022-12-01T06:42:13.761Z,100979.74
2022-12-01T06:45:15.424Z,100984.26
2022-12-01T06:48:16.977Z,100983.70
2022-12-01T06:51:18.499Z,100985.79
2022-12-01T06:54:27.055Z,100985.28
2022-12-01T06:57:31.114Z,100983.38
2022-12-01T07:00:34.520Z,100985.81
2022-12-01T07:03:38.394Z,100988.05
2022-12-01T07:06:40.158Z,100981.96
2022-12-01T07:09:41.830Z,100990.14
2022-12-01T07:12:43.392Z,100989.45
2022-12-01T07:15:51.446Z,100990.31
2022-12-01T07:18:55.269Z,100993.44
2022-12-01T07:25:21.859Z,100992.77
2022-12-01T07:25:50.366Z,100978.04
2022-12-01T07:29:02.729Z,100995.91
2022-12-01T07:32:04.522Z,100983.06
2022-12-01T07:35:06.258Z,100997.98
2022-12-01T07:38:07.732Z,100997.98
2022-12-01T07:41:14.475Z,100998.86
2022-12-01T07:44:16.215Z,100997.30
2022-12-01T07:47:17.793Z,101000.60
2022-12-01T07:50:19.503Z,101000.94
2022-12-01T07:53:21.149Z,101001.98
2022-12-01T07:56:23.080Z,101003.55
2022-12-01T07:59:25.090Z,101009.98
2022-12-01T08:02:26.701Z,101000.08
2022-12-01T08:05:28.304Z,101007.73
2022-12-01T08:08:31.708Z,101007.70
2022-12-01T08:11:33.390Z,101005.28
2022-12-01T08:14:34.825Z,101014.49
2022-12-01T08:17:36.574Z,101013.96
2022-12-01T08:20:38.063Z,101018.31
2022-12-01T08:23:41.530Z,101019.35
2022-12-01T08:26:43.905Z,101016.56
2022-12-01T08:29:45.457Z,101016.23
2022-12-01T08:32:47.075Z,101016.58
2022-12-01T08:35:48.566Z,101016.91
2022-12-01T08:38:55.136Z,101019.86
2022-12-01T08:41:56.732Z,101016.74
2022-12-01T08:46:17.434Z,101013.61
2022-12-01T08:50:56.502Z,100998.34
2022-12-01T09:10:12.138Z,101009.44
2022-12-01T12:15:05.572Z,100933.55
2022-12-01T12:47:43.888Z,100914.27
2022-12-01T12:52:05.072Z,100914.61
2022-12-01T15:10:37.448Z,100890.64
2022-12-01T15:13:55.009Z,100892.52
2022-12-01T15:17:03.559Z,100896.18
2022-12-01T15:45:37.944Z,100894.50
2022-12-01T15:48:51.296Z,100894.24
2022-12-01T15:56:02.630Z,100889.39
2022-12-01T15:59:35.326Z,100899.16
2022-12-01T16:02:40.566Z,100897.30
2022-12-01T16:05:45.408Z,100895.26
2022-12-01T16:08:56.444Z,100899.66
2022-12-01T16:12:12.585Z,100898.88
2022-12-01T16:15:22.949Z,100900.78
2022-12-01T16:18:33.216Z,100900.28
2022-12-01T16:21:57.338Z,100903.76
2022-12-01T16:25:04.790Z,100903.78
2022-12-01T16:28:59.575Z,100900.67
2022-12-01T16:32:21.370Z,100899.83
2022-12-01T16:35:31.979Z,100903.48
2022-12-01T16:38:38.153Z,100903.83
2022-12-01T16:41:59.516Z,100905.40
2022-12-01T16:45:03.073Z,100899.80
2022-12-01T16:48:19.704Z,100908.98
2022-12-01T16:51:30.037Z,100906.73
2022-12-01T16:54:53.928Z,100903.29
2022-12-01T16:57:58.035Z,100903.23
2022-12-01T17:01:11.106Z,100899.57
2022-12-01T17:04:20.788Z,100902.85
2022-12-01T17:07:24.016Z,100903.19
2022-12-01T17:10:30.784Z,100884.98
2022-12-01T17:13:41.874Z,100883.60
2022-12-01T17:16:48.229Z,100897.64
2022-12-01T17:19:59.274Z,100891.72
2022-12-01T17:23:30.573Z,100879.23
2022-12-01T17:26:38.066Z,100891.33
2022-12-01T17:29:46.988Z,100889.73
2022-12-01T17:33:09.761Z,100890.61
2022-12-01T17:36:15.525Z,100889.77
2022-12-01T17:39:24.550Z,100884.40
2022-12-01T17:42:35.986Z,100882.16
2022-12-01T17:45:47.107Z,100890.13
2022-12-01T17:48:58.719Z,100892.92
2022-12-01T17:52:11.987Z,100892.07
2022-12-01T17:55:20.922Z,100888.42
2022-12-01T17:58:46.149Z,100897.79
2022-12-01T18:02:04.293Z,100887.73
2022-12-01T18:05:30.859Z,100897.80
2022-12-01T18:08:55.543Z,100893.98
2022-12-01T18:20:37.440Z,100886.23
2022-12-01T18:24:45.566Z,100899.23
2022-12-01T18:28:09.718Z,100894.73
2022-12-01T18:39:39.103Z,100893.65
2022-12-01T18:43:36.922Z,100891.77
2022-12-01T18:52:16.214Z,100898.54
2022-12-01T19:03:53.607Z,100888.09
2022-12-01T19:05:44.468Z,100890.88
2022-12-01T19:07:44.436Z,100887.73
2022-12-01T19:12:12.696Z,100888.90
2022-12-01T19:20:04.140Z,100884.38
2022-12-01T19:21:24.929Z,100882.44
2022-12-01T19:25:12.586Z,100872.91
2022-12-01T19:29:17.158Z,100879.66
2022-12-01T20:25:38.788Z,100863.27
2022-12-01T20:36:15.269Z,100865.50
2022-12-01T20:44:06.891Z,100856.15
2022-12-01T20:48:00.487Z,100846.48
2022-12-01T20:51:21.547Z,100864.23
2022-12-01T20:54:31.014Z,100861.11
2022-12-01T20:58:06.631Z,100859.23
2022-12-01T21:01:29.388Z,100859.76
2022-12-01T21:04:38.659Z,100860.28
2022-12-01T21:08:06.483Z,100863.79
2022-12-01T21:12:09.324Z,100855.85
2022-12-01T21:16:09.586Z,100867.15
2022-12-01T21:20:04.662Z,100856.40
2022-12-01T21:27:33.123Z,100853.68
2022-12-01T21:30:50.825Z,100868.57
2022-12-01T21:34:02.920Z,100866.46
2022-12-01T21:38:03.296Z,100861.79
2022-12-01T21:41:56.266Z,100861.66
2022-12-01T21:45:34.851Z,100861.66
2022-12-01T21:48:39.165Z,100849.70
2022-12-01T21:55:39.276Z,100854.19
2022-12-01T21:59:42.186Z,100855.23
2022-12-01T22:03:03.881Z,100853.84
2022-12-01T22:10:56.110Z,100850.02
2022-12-01T22:14:36.367Z,100844.46
2022-12-01T22:18:59.142Z,100851.75
2022-12-01T22:22:28.173Z,100850.04
2022-12-01T22:25:57.303Z,100852.27
2022-12-01T22:29:01.341Z,100847.95
2022-12-01T22:32:32.201Z,100845.69
2022-12-01T22:35:53.724Z,100840.55
2022-12-01T22:39:03.017Z,100850.13
2022-12-01T22:42:13.624Z,100847.14
2022-12-01T22:45:24.076Z,100846.07
2022-12-01T22:48:40.867Z,100852.14
2022-12-01T22:51:50.625Z,100849.15
2022-12-01T22:54:52.548Z,100841.02
2022-12-01T22:57:57.580Z,100841.91
2022-12-01T23:01:10.493Z,100843.67
2022-12-01T23:04:32.736Z,100849.25
2022-12-01T23:07:36.392Z,100841.60
2022-12-01T23:10:39.716Z,100841.94
2022-12-01T23:13:41.381Z,100836.20
2022-12-01T23:16:43.039Z,100834.50
2022-12-01T23:19:49.087Z,100829.98
2022-12-01T23:22:56.569Z,100823.95
2022-12-01T23:26:00.840Z,100828.61
2022-12-01T23:29:02.464Z,100825.84
2022-12-01T23:32:04.224Z,100823.93
2022-12-01T23:35:13.159Z,100825.49
2022-12-01T23:38:22.219Z,100827.40
2022-12-01T23:41:38.284Z,100823.73
2022-12-01T23:44:44.982Z,100821.31
2022-12-01T23:47:47.101Z,100822.52
2022-12-01T23:50:52.522Z,100821.29
2022-12-01T23:53:56.874Z,100821.31
2022-12-01T23:57:02.928Z,100821.15
